createdAt,value
2023-04-30T00:01:55.989Z,16.58
2023-04-30T00:04:44.735Z,17.00
2023-04-30T00:07:34.173Z,16.35
2023-04-30T00:10:24.423Z,17.25
2023-04-30T00:13:14.478Z,16.75
2023-04-30T00:16:03.779Z,16.45
2023-04-30T00:18:53.017Z,16.50
2023-04-30T00:21:41.774Z,16.95
2023-04-30T00:24:30.956Z,17.50
2023-04-30T00:27:21.329Z,17.73
2023-04-30T00:30:10.861Z,18.13
2023-04-30T00:32:59.734Z,17.52
2023-04-30T00:35:48.554Z,17.67
2023-04-30T00:38:37.364Z,17.63
2023-04-30T00:41:27.351Z,18.15
2023-04-30T00:44:17.533Z,17.30
2023-04-30T00:47:07.348Z,18.20
2023-04-30T00:49:56.359Z,17.33
2023-04-30T00:52:45.565Z,18.02
2023-04-30T00:55:34.373Z,17.83
2023-04-30T00:58:24.020Z,18.95
2023-04-30T01:01:14.639Z,19.00
2023-04-30T01:04:03.499Z,18.60
2023-04-30T01:06:52.893Z,17.98
2023-04-30T01:09:41.988Z,18.77
2023-04-30T01:12:47.250Z,19.10
2023-04-30T01:15:43.221Z,18.85
2023-04-30T01:18:41.064Z,18.90
2023-04-30T01:21:33.415Z,19.02
2023-04-30T01:24:36.549Z,18.85
2023-04-30T01:27:41.542Z,18.77
2023-04-30T01:30:33.505Z,19.67
2023-04-30T01:33:22.191Z,18.08
2023-04-30T01:36:26.145Z,18.55
2023-04-30T01:39:31.011Z,17.95
2023-04-30T01:42:23.423Z,18.20
2023-04-30T01:45:28.707Z,18.65
2023-04-30T01:48:39.528Z,17.17
2023-04-30T01:51:36.459Z,16.80
2023-04-30T01:54:31.656Z,17.20
2023-04-30T01:57:26.704Z,17.65
2023-04-30T02:00:18.062Z,17.10
2023-04-30T02:03:07.063Z,16.30
2023-04-30T02:05:59.261Z,16.70
2023-04-30T02:08:47.983Z,17.67
2023-04-30T02:11:36.823Z,16.77
2023-04-30T02:14:25.533Z,15.60
2023-04-30T02:17:15.251Z,16.20
2023-04-30T02:20:05.060Z,15.90
2023-04-30T02:22:55.126Z,15.73
2023-04-30T02:25:44.862Z,15.48
2023-04-30T02:28:33.951Z,15.07
2023-04-30T02:31:22.685Z,15.68
2023-04-30T02:34:11.803Z,14.65
2023-04-30T02:37:01.034Z,15.80
2023-04-30T02:39:51.747Z,15.13
2023-04-30T02:42:40.372Z,14.40
2023-04-30T02:45:29.221Z,15.43
2023-04-30T02:48:18.095Z,14.75
2023-04-30T02:51:07.537Z,15.00
2023-04-30T02:53:56.166Z,13.85
2023-04-30T02:56:46.309Z,15.20
2023-04-30T02:59:35.290Z,14.55
2023-04-30T03:02:24.575Z,14.35
2023-04-30T03:05:15.313Z,14.43
2023-04-30T03:08:04.022Z,15.57
2023-04-30T03:10:52.799Z,15.70
2023-04-30T03:13:44.024Z,14.32
2023-04-30T03:16:32.873Z,15.55
2023-04-30T03:19:25.494Z,14.50
2023-04-30T03:22:14.276Z,14.18
2023-04-30T03:25:03.602Z,14.32
2023-04-30T03:27:52.382Z,13.57
2023-04-30T03:30:42.784Z,13.00
2023-04-30T03:33:32.234Z,13.32
2023-04-30T03:36:21.209Z,12.05
2023-04-30T03:39:10.573Z,12.77
2023-04-30T03:41:59.330Z,12.38
2023-04-30T03:44:52.467Z,12.77
2023-04-30T03:47:56.793Z,13.32
2023-04-30T03:50:46.469Z,13.77
2023-04-30T03:53:35.285Z,13.35
2023-04-30T03:56:25.872Z,11.82
2023-04-30T03:59:14.704Z,11.73
2023-04-30T04:02:04.033Z,10.32
2023-04-30T04:04:54.727Z,10.05
2023-04-30T04:07:43.603Z,9.68
2023-04-30T04:10:32.635Z,9.38
2023-04-30T04:13:21.322Z,9.40
2023-04-30T04:16:10.021Z,8.30
2023-04-30T04:18:59.344Z,7.60
2023-04-30T04:21:49.632Z,7.07
2023-04-30T04:24:39.871Z,7.07
2023-04-30T04:27:29.041Z,7.20
2023-04-30T04:30:17.849Z,7.35
2023-04-30T04:33:07.145Z,6.80
2023-04-30T04:35:58.221Z,7.00
2023-04-30T04:38:51.290Z,6.63
2023-04-30T04:41:40.246Z,6.30
2023-04-30T04:44:29.548Z,6.70
2023-04-30T04:47:19.954Z,6.43
2023-04-30T04:50:10.040Z,6.45
2023-04-30T04:52:58.898Z,6.47
2023-04-30T04:55:49.076Z,5.90
2023-04-30T04:58:37.813Z,6.55
2023-04-30T05:01:27.054Z,6.07
2023-04-30T05:04:16.512Z,5.90
2023-04-30T05:07:08.269Z,6.40
2023-04-30T05:09:57.344Z,7.57
2023-04-30T05:12:47.816Z,7.65
2023-04-30T05:15:36.582Z,7.07
2023-04-30T05:18:25.340Z,7.38
2023-04-30T05:21:14.073Z,7.00
2023-04-30T05:24:03.050Z,7.93
2023-04-30T05:26:54.969Z,8.60
2023-04-30T05:29:45.072Z,8.10
2023-04-30T05:32:34.171Z,8.25
2023-04-30T05:35:23.137Z,8.60
2023-04-30T05:38:12.140Z,9.15
2023-04-30T05:41:01.628Z,10.50
2023-04-30T05:43:50.285Z,9.80
2023-04-30T05:46:40.458Z,11.13
2023-04-30T05:49:29.248Z,11.27
2023-04-30T05:52:18.596Z,10.57
2023-04-30T05:55:08.455Z,10.70
2023-04-30T05:57:57.586Z,10.88
2023-04-30T06:00:49.916Z,10.80
2023-04-30T06:03:40.387Z,11.07
2023-04-30T06:06:29.217Z,11.63
2023-04-30T06:09:17.963Z,10.93
2023-04-30T06:12:07.538Z,10.65
2023-04-30T06:14:56.516Z,11.18
2023-04-30T06:17:45.718Z,10.82
2023-04-30T06:20:36.073Z,10.75
2023-04-30T06:23:25.003Z,10.10
2023-04-30T06:26:15.475Z,10.80
2023-04-30T06:29:05.109Z,11.00
2023-04-30T06:31:53.951Z,10.93
2023-04-30T06:34:42.772Z,10.45
2023-04-30T06:37:37.939Z,10.32
2023-04-30T06:40:26.860Z,9.68
2023-04-30T06:43:15.783Z,9.73
2023-04-30T06:46:05.012Z,9.75
2023-04-30T06:48:54.259Z,9.05
2023-04-30T06:51:43.103Z,7.32
2023-04-30T06:54:33.461Z,7.97
2023-04-30T06:57:22.137Z,10.57
2023-04-30T07:00:11.615Z,10.38
2023-04-30T07:03:02.853Z,9.85
2023-04-30T07:05:51.821Z,8.60
2023-04-30T07:08:41.498Z,8.27
2023-04-30T07:11:35.613Z,6.20
2023-04-30T07:14:24.998Z,5.93
2023-04-30T07:17:13.659Z,5.70
2023-04-30T07:20:02.382Z,5.18
2023-04-30T07:22:50.991Z,5.18
2023-04-30T07:25:39.675Z,5.45
2023-04-30T07:28:29.756Z,5.50
2023-04-30T07:31:19.470Z,5.22
2023-04-30T07:34:08.842Z,5.47
2023-04-30T07:36:57.869Z,5.72
2023-04-30T07:39:46.584Z,3.97
2023-04-30T07:42:35.303Z,4.22
2023-04-30T07:45:25.392Z,3.83
2023-04-30T07:48:14.096Z,4.00
2023-04-30T07:51:04.937Z,4.00
2023-04-30T07:53:54.146Z,3.78
2023-04-30T07:56:42.949Z,4.20
2023-04-30T07:59:31.699Z,3.92
2023-04-30T08:02:22.201Z,3.75
2023-04-30T08:05:11.314Z,3.95
2023-04-30T08:08:00.023Z,4.32
2023-04-30T08:10:48.703Z,3.90
2023-04-30T08:13:37.390Z,3.67
2023-04-30T08:16:26.149Z,3.78
2023-04-30T08:19:16.380Z,3.42
2023-04-30T08:22:05.581Z,4.30
2023-04-30T08:24:55.830Z,3.85
2023-04-30T08:27:44.528Z,4.30
2023-04-30T08:30:33.343Z,3.63
2023-04-30T08:33:22.099Z,3.50
2023-04-30T08:36:12.198Z,3.60
2023-04-30T08:39:02.171Z,3.22
2023-04-30T08:41:56.049Z,3.50
2023-04-30T08:44:46.711Z,3.53
2023-04-30T08:47:35.624Z,3.28
2023-04-30T08:50:24.574Z,3.22
2023-04-30T08:53:17.526Z,3.30
2023-04-30T08:56:06.838Z,3.35
2023-04-30T08:58:55.613Z,3.03
2023-04-30T09:01:44.251Z,2.95
2023-04-30T09:04:33.273Z,3.10
2023-04-30T09:07:25.557Z,2.90
2023-04-30T09:10:19.869Z,2.70
2023-04-30T09:13:09.683Z,3.20
2023-04-30T09:16:01.390Z,2.40
2023-04-30T09:18:50.584Z,2.78
2023-04-30T09:21:39.546Z,2.80
2023-04-30T09:24:28.263Z,3.00
2023-04-30T09:27:23.297Z,3.10
2023-04-30T09:30:32.621Z,2.88
2023-04-30T09:33:21.572Z,3.40
2023-04-30T09:36:11.682Z,2.95
2023-04-30T09:39:10.781Z,3.03
2023-04-30T09:42:10.224Z,2.90
2023-04-30T09:45:00.502Z,3.05
2023-04-30T09:47:49.729Z,2.40
2023-04-30T09:50:43.288Z,3.25
2023-04-30T09:53:32.496Z,2.65
2023-04-30T09:56:24.529Z,3.47
2023-04-30T09:59:14.788Z,2.75
2023-04-30T10:02:07.065Z,3.22
2023-04-30T10:04:59.345Z,2.50
2023-04-30T10:07:48.057Z,3.00
2023-04-30T10:10:39.682Z,3.10
2023-04-30T10:13:31.629Z,2.60
2023-04-30T10:16:32.065Z,2.90
2023-04-30T10:19:25.416Z,2.50
2023-04-30T10:22:14.660Z,2.92
2023-04-30T10:25:04.462Z,2.42
2023-04-30T10:27:53.296Z,2.95
2023-04-30T10:30:43.782Z,2.50
2023-04-30T10:33:39.410Z,2.78
2023-04-30T10:36:38.703Z,2.80
2023-04-30T10:39:28.987Z,2.55
2023-04-30T10:42:18.928Z,2.22
2023-04-30T10:45:13.154Z,2.20
2023-04-30T10:48:03.765Z,2.13
2023-04-30T10:50:53.489Z,2.53
2023-04-30T10:53:45.642Z,2.50
2023-04-30T10:56:35.604Z,2.08
2023-04-30T10:59:24.678Z,3.22
2023-04-30T11:02:14.231Z,2.50
2023-04-30T11:05:14.607Z,2.28
2023-04-30T11:08:03.728Z,2.35
2023-04-30T11:11:01.965Z,2.10
2023-04-30T11:14:01.350Z,1.98
2023-04-30T11:16:51.442Z,1.75
2023-04-30T11:19:49.911Z,1.90
2023-04-30T11:22:40.448Z,2.00
2023-04-30T11:25:41.440Z,2.28
2023-04-30T11:28:34.834Z,2.03
2023-04-30T11:31:24.102Z,1.95
2023-04-30T11:34:13.944Z,2.30
2023-04-30T11:37:04.794Z,1.98
2023-04-30T11:39:54.334Z,2.10
2023-04-30T11:42:46.694Z,1.80
2023-04-30T11:45:36.940Z,1.98
2023-04-30T11:48:25.767Z,1.90
2023-04-30T11:51:18.632Z,1.73
2023-04-30T11:54:10.529Z,1.83
2023-04-30T11:57:04.233Z,1.85
2023-04-30T11:59:53.541Z,1.70
2023-04-30T12:02:44.800Z,2.13
2023-04-30T12:05:33.818Z,2.25
2023-04-30T12:08:22.823Z,1.98
2023-04-30T12:11:25.899Z,2.03
2023-04-30T12:14:15.383Z,1.85
2023-04-30T12:17:15.207Z,2.00
2023-04-30T12:20:06.988Z,1.80
2023-04-30T12:22:56.213Z,1.80
2023-04-30T12:25:45.188Z,2.00
2023-04-30T12:28:36.476Z,2.10
2023-04-30T12:31:25.771Z,2.28
2023-04-30T12:34:16.164Z,2.30
2023-04-30T12:37:07.934Z,1.65
2023-04-30T12:39:57.908Z,1.92
2023-04-30T12:42:47.336Z,2.20
2023-04-30T12:45:47.795Z,1.98
2023-04-30T12:48:45.917Z,1.73
2023-04-30T12:51:35.489Z,1.90
2023-04-30T12:54:32.623Z,1.77
2023-04-30T12:57:21.758Z,1.88
2023-04-30T13:00:12.623Z,1.92
2023-04-30T13:03:02.174Z,1.80
2023-04-30T13:05:54.137Z,2.30
2023-04-30T13:08:57.047Z,1.70
2023-04-30T13:11:51.017Z,1.70
2023-04-30T13:14:40.110Z,2.25
2023-04-30T13:17:29.538Z,1.83
2023-04-30T13:20:18.626Z,2.10
2023-04-30T13:23:07.873Z,2.08
2023-04-30T13:25:56.792Z,2.00
2023-04-30T13:28:46.883Z,2.00
2023-04-30T13:31:35.674Z,1.80
2023-04-30T13:34:24.806Z,1.50
2023-04-30T13:37:13.672Z,2.05
2023-04-30T13:40:04.026Z,2.05
2023-04-30T13:42:52.818Z,1.90
2023-04-30T13:45:43.039Z,1.80
2023-04-30T13:48:32.315Z,1.65
2023-04-30T13:51:25.469Z,2.40
2023-04-30T13:54:14.260Z,1.80
2023-04-30T13:57:03.644Z,1.95
2023-04-30T13:59:52.938Z,1.98
2023-04-30T14:02:43.387Z,1.73
2023-04-30T14:05:32.391Z,1.92
2023-04-30T14:08:23.311Z,1.77
2023-04-30T14:11:12.626Z,2.03
2023-04-30T14:14:01.623Z,2.22
2023-04-30T14:16:51.023Z,1.75
2023-04-30T14:19:41.696Z,2.17
2023-04-30T14:22:30.400Z,1.70
2023-04-30T14:25:19.510Z,1.80
2023-04-30T14:28:08.163Z,1.50
2023-04-30T14:30:57.544Z,2.03
2023-04-30T14:33:46.935Z,1.80
2023-04-30T14:36:38.486Z,1.60
2023-04-30T14:39:28.173Z,1.95
2023-04-30T14:42:17.694Z,1.80
2023-04-30T14:45:08.277Z,1.75
2023-04-30T14:47:57.169Z,1.73
2023-04-30T14:50:46.515Z,1.50
2023-04-30T14:53:37.590Z,2.15
2023-04-30T14:56:26.454Z,1.52
2023-04-30T14:59:15.319Z,1.83
2023-04-30T15:02:04.281Z,2.40
2023-04-30T15:04:53.037Z,1.45
2023-04-30T15:07:41.895Z,1.70
2023-04-30T15:10:32.496Z,1.60
2023-04-30T15:13:21.329Z,1.40
2023-04-30T15:16:10.078Z,1.92
2023-04-30T15:18:58.853Z,1.85
2023-04-30T15:21:49.095Z,1.80
2023-04-30T15:24:38.342Z,1.90
2023-04-30T15:27:29.437Z,1.88
2023-04-30T15:30:19.191Z,1.58
2023-04-30T15:33:08.001Z,1.50
2023-04-30T15:35:56.853Z,1.83
2023-04-30T15:38:45.645Z,2.03
2023-04-30T15:41:34.244Z,1.60
2023-04-30T15:44:24.255Z,1.58
2023-04-30T15:47:13.168Z,1.70
2023-04-30T15:50:02.727Z,1.63
2023-04-30T15:52:51.628Z,1.88
2023-04-30T15:55:40.601Z,1.67
2023-04-30T15:58:29.440Z,1.40
2023-04-30T16:01:20.011Z,1.63
2023-04-30T16:04:08.781Z,2.00
2023-04-30T16:06:58.291Z,1.58
2023-04-30T16:09:49.204Z,1.95
2023-04-30T16:12:38.074Z,1.90
2023-04-30T16:15:27.719Z,1.70
2023-04-30T16:18:17.865Z,1.65
2023-04-30T16:21:09.322Z,1.85
2023-04-30T16:23:58.327Z,1.83
2023-04-30T16:26:47.050Z,1.95
2023-04-30T16:29:35.950Z,2.10
2023-04-30T16:32:24.567Z,2.00
2023-04-30T16:35:14.760Z,1.85
2023-04-30T16:38:04.020Z,1.85
2023-04-30T16:40:56.274Z,2.10
2023-04-30T16:43:45.963Z,2.00
2023-04-30T16:46:35.487Z,1.90
2023-04-30T16:49:24.796Z,2.88
2023-04-30T16:52:19.087Z,2.00
2023-04-30T16:55:10.646Z,1.60
2023-04-30T16:58:00.148Z,2.03
2023-04-30T17:00:49.885Z,2.00
2023-04-30T17:03:39.231Z,1.58
2023-04-30T17:06:28.025Z,1.67
2023-04-30T17:09:19.760Z,2.15
2023-04-30T17:12:08.584Z,1.83
2023-04-30T17:14:57.743Z,1.88
2023-04-30T17:17:46.589Z,2.08
2023-04-30T17:20:35.402Z,1.85
2023-04-30T17:23:25.716Z,2.60
2023-04-30T17:26:15.878Z,2.15
2023-04-30T17:29:06.345Z,2.35
2023-04-30T17:31:55.007Z,2.10
2023-04-30T17:34:43.799Z,2.00
2023-04-30T17:37:32.548Z,1.98
2023-04-30T17:40:21.207Z,2.22
2023-04-30T17:43:11.482Z,1.80
2023-04-30T17:46:05.655Z,1.95
2023-04-30T17:48:54.900Z,2.45
2023-04-30T17:51:43.547Z,1.85
2023-04-30T17:54:35.367Z,1.77
2023-04-30T17:57:25.358Z,1.73
2023-04-30T18:00:17.044Z,2.15
2023-04-30T18:03:07.384Z,2.20
2023-04-30T18:05:56.403Z,2.17
2023-04-30T18:08:46.057Z,2.35
2023-04-30T18:11:34.808Z,2.47
2023-04-30T18:14:23.562Z,2.33
2023-04-30T18:17:15.280Z,2.38
2023-04-30T18:20:05.416Z,2.17
2023-04-30T18:22:54.109Z,2.85
2023-04-30T18:25:43.790Z,2.05
2023-04-30T18:28:32.736Z,2.20
2023-04-30T18:31:21.602Z,2.42
2023-04-30T18:34:11.778Z,2.63
2023-04-30T18:37:00.710Z,3.03
2023-04-30T18:39:51.346Z,2.30
2023-04-30T18:42:40.158Z,2.72
2023-04-30T18:45:29.008Z,2.83
2023-04-30T18:48:19.188Z,2.55
2023-04-30T18:51:09.540Z,2.63
2023-04-30T18:53:58.505Z,2.78
2023-04-30T18:56:47.466Z,2.42
2023-04-30T18:59:36.349Z,2.88
2023-04-30T19:02:25.364Z,3.17
2023-04-30T19:05:14.252Z,2.95
2023-04-30T19:08:04.785Z,2.95
2023-04-30T19:10:54.111Z,3.13
2023-04-30T19:13:42.781Z,2.65
2023-04-30T19:16:31.700Z,2.97
2023-04-30T19:19:20.690Z,3.00
2023-04-30T19:22:09.464Z,2.70
2023-04-30T19:24:59.739Z,3.05
2023-04-30T19:27:48.961Z,2.90
2023-04-30T19:30:37.732Z,3.00
2023-04-30T19:33:27.830Z,3.30
2023-04-30T19:36:17.376Z,3.10
2023-04-30T19:39:10.233Z,3.40
2023-04-30T19:42:00.850Z,3.17
2023-04-30T19:44:52.448Z,2.90
2023-04-30T19:47:41.356Z,3.53
2023-04-30T19:50:30.429Z,3.50
2023-04-30T19:53:19.630Z,3.45
2023-04-30T19:56:08.771Z,3.17
2023-04-30T19:58:59.065Z,3.38
2023-04-30T20:01:48.780Z,3.70
2023-04-30T20:04:38.400Z,3.63
2023-04-30T20:07:27.207Z,3.30
2023-04-30T20:10:16.052Z,3.85
2023-04-30T20:13:05.572Z,3.90
2023-04-30T20:15:55.716Z,3.60
2023-04-30T20:18:44.609Z,3.70
2023-04-30T20:21:37.256Z,3.95
2023-04-30T20:24:26.033Z,3.92
2023-04-30T20:27:14.932Z,3.50
2023-04-30T20:30:05.464Z,4.15
2023-04-30T20:32:55.848Z,3.97
2023-04-30T20:35:45.720Z,4.05
2023-04-30T20:38:34.756Z,4.13
2023-04-30T20:41:23.595Z,4.55
2023-04-30T20:44:12.235Z,4.45
2023-04-30T20:47:01.262Z,3.83
2023-04-30T20:49:52.384Z,4.60
2023-04-30T20:52:41.568Z,4.00
2023-04-30T20:55:30.961Z,4.05
2023-04-30T20:58:19.750Z,4.03
2023-04-30T21:01:08.673Z,4.38
2023-04-30T21:03:57.605Z,4.50
2023-04-30T21:06:48.094Z,4.45
2023-04-30T21:09:38.403Z,4.35
2023-04-30T21:12:28.053Z,4.30
2023-04-30T21:15:17.404Z,4.75
2023-04-30T21:18:06.131Z,4.70
2023-04-30T21:20:56.517Z,4.30
2023-04-30T21:23:48.330Z,4.50
2023-04-30T21:26:37.367Z,4.82
2023-04-30T21:29:26.563Z,4.50
2023-04-30T21:32:17.234Z,5.25
2023-04-30T21:35:07.126Z,4.72
2023-04-30T21:37:56.211Z,5.00
2023-04-30T21:40:46.377Z,4.35
2023-04-30T21:43:35.323Z,4.30
2023-04-30T21:46:24.402Z,4.30
2023-04-30T21:49:13.766Z,4.32
2023-04-30T21:52:04.195Z,4.25
2023-04-30T21:54:52.929Z,4.32
2023-04-30T21:57:43.046Z,4.75
2023-04-30T22:00:32.412Z,4.55
2023-04-30T22:03:24.908Z,4.28
2023-04-30T22:06:13.967Z,4.65
2023-04-30T22:09:04.564Z,4.65
2023-04-30T22:11:53.840Z,5.05
2023-04-30T22:14:45.483Z,4.97
2023-04-30T22:17:37.942Z,4.72
2023-04-30T22:20:27.376Z,5.60
2023-04-30T22:23:16.706Z,5.97
2023-04-30T22:26:09.920Z,5.88
2023-04-30T22:28:59.182Z,6.10
2023-04-30T22:31:49.860Z,6.15
2023-04-30T22:34:41.075Z,5.43
2023-04-30T22:37:31.367Z,5.53
2023-04-30T22:40:20.706Z,6.07
2023-04-30T22:43:11.195Z,6.22
2023-04-30T22:46:01.473Z,5.80
2023-04-30T22:48:51.776Z,5.72
2023-04-30T22:51:40.489Z,5.72
2023-04-30T22:54:29.702Z,5.72
2023-04-30T22:57:18.408Z,6.20
2023-04-30T23:00:09.684Z,5.45
2023-04-30T23:02:58.447Z,5.63
2023-04-30T23:05:51.672Z,5.80
2023-04-30T23:08:44.405Z,5.60
2023-04-30T23:11:33.298Z,5.80
2023-04-30T23:14:22.266Z,6.15
2023-04-30T23:17:11.000Z,5.72
2023-04-30T23:19:59.702Z,5.47
2023-04-30T23:22:50.251Z,5.22
2023-04-30T23:25:39.138Z,5.28
2023-04-30T23:28:27.921Z,5.45
2023-04-30T23:31:18.048Z,5.32
2023-04-30T23:34:07.022Z,5.40
2023-04-30T23:36:55.784Z,4.78
2023-04-30T23:39:45.921Z,5.05
2023-04-30T23:42:35.665Z,4.65
2023-04-30T23:45:24.610Z,4.78
2023-04-30T23:48:13.386Z,4.80
2023-04-30T23:51:02.575Z,4.65
2023-04-30T23:53:51.470Z,4.72
2023-04-30T23:56:41.803Z,4.93
2023-04-30T23:59:30.612Z,4.63
